Airfield :
LOGIN :

Register | Disclaimer

   EN    FR    IT 

 










Legend :    VFR   Marginal VFR   IFR   Intensive IFR   Very Intensive IFR
Visi :
Ceiling :
>= 8 km
>= 3000ft
5 to 8 km
1000 to 3000 ft
1500m to 5 km
500 to 1000 ft
800 to 1500m
200 to 500 ft
< 800m
< 200 ft
Symbols :   Thunderstorms  Fog  Heavy snow  Heavy precipitations  Wind > 20 kt
SIGMETs :     Misc.  Thunderstorms  Icing  Turbulence  Mountain Waves  Volcanic Ashes







- Airport Elevation : 412 ft
- IATA code : ADB


LTBJ - Adnan Menderes

CURRENT METAR :
  • 210520Z 36015KT CAVOK 27/16 Q1009 NOSIG

EXPIRED METARs :
  • 210450Z 36016KT CAVOK 27/16 Q1009 NOSIG RMK RWY16 35014KT
  • 210420Z 36017KT CAVOK 27/16 Q1009 NOSIG RMK RWY16 35016KT
  • 210350Z 36015KT CAVOK 26/16 Q1009 NOSIG RMK RWY16 35014KT
  • 210320Z 36013KT CAVOK 25/16 Q1009 NOSIG RMK RWY16 35010KT
  • 210250Z 36013KT CAVOK 25/16 Q1009 NOSIG RMK RWY16 35008KT

TAF TAF LTBJ
Valid from the 21 at 06:00 until the 22 at 06:00 UTC


210440Z 2106/2206 35010KT CAVOK
BECMG 2106/2109 FEW030
BECMG 2111/2114 35017G27KT CAVOK
BECMG 2118/2121 36010KT
No reported NOTAMs for that airfield.



MET'MAP, your aeronautical weather chart ! - Copyright ORBIFLY December 2007 - Disclaimer

ORBIFLY MET'MAP TEAM :

Programming & Development : Alexandra Zaïnal
Concept & Development : Baudouin d'Aumeries
Co-Development & Prog : Marc-Olivier Méhu
Technical & hardware support : Manuel Goepfert

Contact : metmap@orbifly.com




SOURCES & CREDITS :

   NOAA